KSJX

Beaver Island Airport

Beaver Island, Michigan, USA
METAR KSJX 151616Z AUTO 08006KT 10SM CLR 04/00 A3022 RMK AO2 T00400000
Observed Flight Rules
Dec-15 @ 16:16 UTC (23 minutes ago) Visual Flight Rules
Wind Visibility Clouds
80° at 6 knots 10 miles
  • Clear skies
Temperatures Readings
Current 4°C / 39°F
Dewpoint 0°C / 32°F
Humidity 75%
Altimeter 30.22" Hg
Pressure 1023 hPa
Elevation 204
METAR KSJX 151616Z AUTO 08006KT 10SM CLR 04/00 A3022 RMK AO2 T00400000
Observed Flight Rules
Dec-15 @ 16:16 UTC
(23 minutes ago)
VFR
Wind Visibility
80° at 6 knots 10 miles
Clouds
  • Clear skies
Temperature Dewpoint
4°C / 39°F 0°C / 32°F
Humidity Altimeter Pressure
75% 30.22" Hg 1023 hPa